createdAt,value
2023-01-28T00:02:27.134Z,-1.00
2023-01-28T00:04:55.025Z,-1.00
2023-01-28T00:07:24.917Z,-1.10
2023-01-28T00:09:53.388Z,-1.10
2023-01-28T00:12:21.191Z,-0.10
2023-01-28T00:14:49.203Z,0.50
2023-01-28T00:17:17.013Z,-0.20
2023-01-28T00:19:44.911Z,-0.50
2023-01-28T00:22:12.756Z,-0.80
2023-01-28T00:24:41.884Z,-0.70
2023-01-28T00:27:10.432Z,-0.80
2023-01-28T00:29:38.630Z,-0.80
2023-01-28T00:32:07.086Z,-1.00
2023-01-28T00:34:34.992Z,-1.00
2023-01-28T00:37:02.764Z,-1.00
2023-01-28T00:39:30.712Z,-1.10
2023-01-28T00:41:59.918Z,-1.10
2023-01-28T00:44:27.964Z,-1.20
2023-01-28T00:46:55.770Z,-1.20
2023-01-28T00:49:23.720Z,-1.10
2023-01-28T00:51:51.717Z,-1.10
2023-01-28T00:54:19.689Z,-1.10
2023-01-28T00:56:47.533Z,-1.10
2023-01-28T00:59:16.748Z,-1.00
2023-01-28T01:01:44.806Z,-1.00
2023-01-28T01:04:12.693Z,-1.00
2023-01-28T01:06:41.567Z,-1.10
2023-01-28T01:09:11.484Z,-1.20
2023-01-28T01:11:39.763Z,-1.10
2023-01-28T01:14:07.602Z,-1.10
2023-01-28T01:16:38.949Z,-1.20
2023-01-28T01:19:09.361Z,-1.20
2023-01-28T01:21:37.229Z,-1.10
2023-01-28T01:24:05.267Z,-1.10
2023-01-28T01:26:33.080Z,-1.10
2023-01-28T01:29:00.912Z,-1.20
2023-01-28T01:31:28.811Z,-1.20
2023-01-28T01:33:58.065Z,-1.20
2023-01-28T01:36:25.916Z,-1.10
2023-01-28T01:38:56.782Z,-1.10
2023-01-28T01:41:27.334Z,-1.10
2023-01-28T01:43:56.101Z,-1.10
2023-01-28T01:46:25.887Z,-1.10
2023-01-28T01:48:54.312Z,-1.10
2023-01-28T01:51:26.094Z,-1.10
2023-01-28T01:53:54.610Z,-1.10
2023-01-28T01:56:23.917Z,-1.10
2023-01-28T01:58:52.523Z,-1.20
2023-01-28T02:01:20.972Z,-1.20
2023-01-28T02:03:52.560Z,-1.20
2023-01-28T02:06:20.550Z,-1.20
2023-01-28T02:08:49.771Z,-1.30
2023-01-28T02:11:17.664Z,-1.30
2023-01-28T02:13:47.368Z,-1.30
2023-01-28T02:16:15.153Z,-1.30
2023-01-28T02:18:42.972Z,-1.10
2023-01-28T02:21:32.177Z,-1.30
2023-01-28T02:24:26.786Z,-1.30
2023-01-28T02:27:00.540Z,-1.30
2023-01-28T02:29:32.080Z,-1.40
2023-01-28T02:32:02.673Z,-1.50
2023-01-28T02:34:35.268Z,-1.60
2023-01-28T02:37:05.676Z,-1.50
2023-01-28T02:39:34.533Z,-1.30
2023-01-28T02:42:05.351Z,-1.40
2023-01-28T02:44:34.502Z,-1.50
2023-01-28T02:47:20.055Z,-1.40
2023-01-28T02:49:49.785Z,-1.40
2023-01-28T02:52:44.981Z,-1.40
2023-01-28T02:55:17.100Z,-1.40
2023-01-28T02:57:48.256Z,-1.50
2023-01-28T03:00:19.431Z,-1.50
2023-01-28T03:02:50.943Z,-1.50
2023-01-28T03:06:09.092Z,-1.40
2023-01-28T03:08:57.362Z,-1.50
2023-01-28T03:11:42.970Z,-1.50
2023-01-28T03:14:28.467Z,-1.60
2023-01-28T03:17:15.818Z,-1.70
2023-01-28T03:20:01.287Z,-1.60
2023-01-28T03:22:46.875Z,-1.60
2023-01-28T03:25:32.325Z,-1.60
2023-01-28T03:28:19.508Z,-1.50
2023-01-28T03:31:06.580Z,-1.50
2023-01-28T03:33:53.089Z,-1.40
2023-01-28T03:36:39.024Z,-1.50
2023-01-28T03:39:06.913Z,-1.50
2023-01-28T03:41:34.740Z,-1.50
2023-01-28T03:44:20.173Z,-1.50
2023-01-28T03:46:48.774Z,-1.60
2023-01-28T03:49:18.223Z,-1.70
2023-01-28T03:51:46.290Z,-1.50
2023-01-28T03:54:14.144Z,-1.40
2023-01-28T03:56:42.202Z,-1.50
2023-01-28T03:59:10.054Z,-1.50
2023-01-28T04:01:38.021Z,-1.40
2023-01-28T04:04:05.968Z,-1.30
2023-01-28T04:06:35.121Z,-1.40
2023-01-28T04:09:05.880Z,-1.50
2023-01-28T04:11:33.729Z,-1.50
2023-01-28T04:14:01.553Z,-1.40
2023-01-28T04:16:29.415Z,-1.50
2023-01-28T04:18:57.901Z,-1.50
2023-01-28T04:21:25.769Z,-1.50
2023-01-28T04:23:55.225Z,-1.40
2023-01-28T04:26:23.103Z,-1.40
2023-01-28T04:28:50.883Z,-1.30
2023-01-28T04:31:18.750Z,-1.30
2023-01-28T04:33:46.620Z,-1.20
2023-01-28T04:36:14.458Z,-1.20
2023-01-28T04:38:42.271Z,-1.40
2023-01-28T04:41:11.635Z,-1.40
2023-01-28T04:43:39.440Z,-1.40
2023-01-28T04:46:07.420Z,-1.40
2023-01-28T04:48:36.493Z,-1.30
2023-01-28T04:51:04.372Z,-1.50
2023-01-28T04:53:32.239Z,-1.50
2023-01-28T04:56:00.029Z,-1.30
2023-01-28T04:58:29.242Z,-1.20
2023-01-28T05:00:57.598Z,-1.20
2023-01-28T05:03:25.552Z,-1.20
2023-01-28T05:05:53.448Z,-1.20
2023-01-28T05:08:21.215Z,-1.30
2023-01-28T05:10:48.974Z,-1.20
2023-01-28T05:13:16.746Z,-1.20
2023-01-28T05:15:45.830Z,-1.20
2023-01-28T05:18:13.657Z,-1.40
2023-01-28T05:20:41.469Z,-1.20
2023-01-28T05:23:09.291Z,-1.10
2023-01-28T05:25:37.430Z,-1.30
2023-01-28T05:28:05.522Z,-1.20
2023-01-28T05:30:33.346Z,-1.10
2023-01-28T05:33:02.532Z,-1.30
2023-01-28T05:35:30.353Z,-1.20
2023-01-28T05:37:58.188Z,-1.20
2023-01-28T05:40:25.997Z,-0.80
2023-01-28T05:42:53.948Z,-0.90
2023-01-28T05:45:22.093Z,-0.90
2023-01-28T05:47:50.013Z,-1.00
2023-01-28T05:50:19.447Z,-1.10
2023-01-28T05:52:47.261Z,-1.10
2023-01-28T05:55:15.072Z,-1.20
2023-01-28T05:57:44.515Z,-1.10
2023-01-28T06:00:13.643Z,-1.20
2023-01-28T06:02:41.631Z,-1.30
2023-01-28T06:05:10.320Z,-1.40
2023-01-28T06:07:39.612Z,-1.40
2023-01-28T06:10:08.473Z,-1.30
2023-01-28T06:12:36.267Z,-1.30
2023-01-28T06:15:04.105Z,-1.20
2023-01-28T06:17:32.169Z,-1.20
2023-01-28T06:19:59.971Z,-1.30
2023-01-28T06:22:27.749Z,-1.40
2023-01-28T06:24:57.166Z,-1.30
2023-01-28T06:27:24.899Z,-1.40
2023-01-28T06:29:52.711Z,-1.40
2023-01-28T06:32:20.990Z,-1.30
2023-01-28T06:34:48.831Z,-1.30
2023-01-28T06:37:16.774Z,-1.20
2023-01-28T06:39:44.622Z,-1.20
2023-01-28T06:42:13.860Z,-1.30
2023-01-28T06:44:41.679Z,-1.40
2023-01-28T06:47:10.773Z,-1.30
2023-01-28T06:49:38.726Z,-1.30
2023-01-28T06:52:06.518Z,-1.20
2023-01-28T06:54:34.339Z,-1.30
2023-01-28T06:57:02.132Z,-1.50
2023-01-28T06:59:31.313Z,-1.40
2023-01-28T07:01:59.475Z,-1.40
2023-01-28T07:04:27.339Z,-1.40
2023-01-28T07:06:55.210Z,-1.40
2023-01-28T07:09:23.038Z,-1.50
2023-01-28T07:11:50.844Z,-1.30
2023-01-28T07:14:18.705Z,-1.30
2023-01-28T07:16:47.911Z,-1.20
2023-01-28T07:19:15.787Z,-1.00
2023-01-28T07:21:43.587Z,-1.00
2023-01-28T07:24:11.699Z,-1.00
2023-01-28T07:26:39.530Z,-1.30
2023-01-28T07:29:07.360Z,-1.30
2023-01-28T07:31:35.269Z,-1.20
2023-01-28T07:34:04.480Z,-1.30
2023-01-28T07:36:32.311Z,-1.30
2023-01-28T07:39:00.119Z,-1.50
2023-01-28T07:41:28.077Z,-1.30
2023-01-28T07:43:56.589Z,-1.30
2023-01-28T07:46:24.436Z,-1.40
2023-01-28T07:48:52.300Z,-1.30
2023-01-28T07:51:21.511Z,-1.30
2023-01-28T07:53:49.311Z,-1.30
2023-01-28T07:56:17.371Z,-1.30
2023-01-28T07:58:45.195Z,-1.20
2023-01-28T08:01:14.295Z,-1.10
2023-01-28T08:03:42.141Z,-1.30
2023-01-28T08:06:11.651Z,-1.20
2023-01-28T08:08:40.857Z,-1.10
2023-01-28T08:11:10.745Z,-1.00
2023-01-28T08:13:38.657Z,-1.20
2023-01-28T08:16:07.255Z,-1.20
2023-01-28T08:18:35.674Z,-1.20
2023-01-28T08:21:05.090Z,-1.10
2023-01-28T08:23:34.596Z,-1.20
2023-01-28T08:26:03.784Z,-1.00
2023-01-28T08:28:32.237Z,-1.20
2023-01-28T08:31:01.207Z,-0.80
2023-01-28T08:33:29.134Z,-0.80
2023-01-28T08:35:59.783Z,-0.90
2023-01-28T08:38:27.592Z,-0.90
2023-01-28T08:40:55.871Z,-0.90
2023-01-28T08:43:25.113Z,-0.90
2023-01-28T08:45:52.953Z,-0.90
2023-01-28T08:48:21.728Z,-1.00
2023-01-28T08:50:50.806Z,-1.00
2023-01-28T08:53:19.371Z,-0.90
2023-01-28T08:55:47.480Z,-0.90
2023-01-28T08:58:16.082Z,-0.80
2023-01-28T09:00:45.474Z,-0.70
2023-01-28T09:03:13.333Z,-0.60
2023-01-28T09:05:41.278Z,-0.70
2023-01-28T09:08:10.206Z,-0.70
2023-01-28T09:10:38.559Z,-0.60
2023-01-28T09:13:06.765Z,-0.50
2023-01-28T09:15:34.660Z,-0.50
2023-01-28T09:18:03.877Z,-0.40
2023-01-28T09:20:32.990Z,-0.50
2023-01-28T09:23:01.534Z,-0.50
2023-01-28T09:25:29.378Z,-0.40
2023-01-28T09:27:57.200Z,-0.50
2023-01-28T09:30:25.163Z,-0.50
2023-01-28T09:32:53.412Z,-0.50
2023-01-28T09:35:22.788Z,-0.50
2023-01-28T09:37:51.988Z,-0.50
2023-01-28T09:40:21.822Z,-0.50
2023-01-28T09:42:59.517Z,-0.40
2023-01-28T09:45:32.039Z,0.20
2023-01-28T09:48:01.090Z,0.50
2023-01-28T09:50:33.036Z,0.90
2023-01-28T09:53:03.622Z,0.30
2023-01-28T09:55:33.059Z,0.10
2023-01-28T09:58:01.567Z,-0.10
2023-01-28T10:00:31.505Z,-0.20
2023-01-28T10:03:09.866Z,-0.10
2023-01-28T10:05:42.298Z,-0.10
2023-01-28T10:08:19.636Z,-0.10
2023-01-28T10:10:49.513Z,-0.10
2023-01-28T10:13:28.005Z,-0.10
2023-01-28T10:16:01.028Z,0.00
2023-01-28T10:18:34.910Z,0.10
2023-01-28T10:21:08.894Z,0.00
2023-01-28T10:23:42.687Z,0.20
2023-01-28T10:26:17.190Z,0.90
2023-01-28T10:28:45.035Z,1.10
2023-01-28T10:31:14.262Z,1.30
2023-01-28T10:33:42.201Z,1.40
2023-01-28T10:36:11.844Z,2.10
2023-01-28T10:38:40.090Z,2.40
2023-01-28T10:41:08.993Z,2.70
2023-01-28T10:43:38.329Z,2.70
2023-01-28T10:46:08.938Z,2.20
2023-01-28T10:48:38.562Z,2.00
2023-01-28T10:51:06.994Z,2.00
2023-01-28T10:53:37.196Z,3.00
2023-01-28T10:56:05.817Z,3.50
2023-01-28T10:58:35.599Z,3.90
2023-01-28T11:01:05.488Z,4.10
2023-01-28T11:03:35.228Z,5.20
2023-01-28T11:06:03.531Z,5.70
2023-01-28T11:08:32.067Z,5.00
2023-01-28T11:11:01.480Z,3.80
2023-01-28T11:13:30.157Z,3.80
2023-01-28T11:16:02.019Z,4.40
2023-01-28T11:18:31.347Z,4.40
2023-01-28T11:21:00.029Z,4.40
2023-01-28T11:23:29.499Z,4.40
2023-01-28T11:26:06.304Z,4.30
2023-01-28T11:28:34.336Z,4.50
2023-01-28T11:31:03.489Z,4.90
2023-01-28T11:33:34.133Z,5.00
2023-01-28T11:36:07.793Z,5.10
2023-01-28T11:38:35.695Z,5.40
2023-01-28T11:41:05.001Z,5.40
2023-01-28T11:43:32.934Z,5.60
2023-01-28T11:46:07.825Z,4.20
2023-01-28T11:48:38.569Z,4.80
2023-01-28T11:51:09.170Z,4.90
2023-01-28T11:54:06.100Z,4.50
2023-01-28T11:56:50.984Z,4.70
2023-01-28T11:59:26.793Z,4.90
2023-01-28T12:01:57.297Z,4.40
2023-01-28T12:04:34.431Z,4.30
2023-01-28T12:07:22.825Z,3.70
2023-01-28T12:09:55.171Z,3.60
2023-01-28T12:12:38.042Z,3.40
2023-01-28T12:15:26.149Z,3.40
2023-01-28T12:18:01.961Z,3.10
2023-01-28T12:20:31.481Z,3.00
2023-01-28T12:23:30.516Z,2.90
2023-01-28T12:26:07.755Z,3.50
2023-01-28T12:28:45.618Z,3.70
2023-01-28T12:31:25.542Z,2.70
2023-01-28T12:34:03.058Z,2.30
2023-01-28T12:36:37.931Z,2.50
2023-01-28T12:39:11.364Z,2.60
2023-01-28T12:41:41.399Z,2.40
2023-01-28T12:44:13.104Z,2.10
2023-01-28T12:46:43.548Z,2.20
2023-01-28T12:49:15.057Z,2.20
2023-01-28T12:51:56.439Z,1.90
2023-01-28T12:54:26.355Z,2.00
2023-01-28T12:56:54.703Z,1.90
2023-01-28T12:59:26.644Z,1.70
2023-01-28T13:01:58.905Z,1.80
2023-01-28T13:04:32.237Z,1.70
2023-01-28T13:07:01.631Z,1.80
2023-01-28T13:09:29.540Z,1.60
2023-01-28T13:11:58.595Z,1.70
2023-01-28T13:14:30.344Z,1.80
2023-01-28T13:16:58.680Z,1.80
2023-01-28T13:19:36.684Z,1.90
2023-01-28T13:22:11.913Z,1.90
2023-01-28T13:24:39.944Z,2.00
2023-01-28T13:27:16.267Z,1.80
2023-01-28T13:29:48.854Z,1.70
2023-01-28T13:32:29.738Z,1.70
2023-01-28T13:34:59.742Z,1.90
2023-01-28T13:37:31.331Z,1.90
2023-01-28T13:40:09.217Z,1.60
2023-01-28T13:42:37.110Z,1.60
2023-01-28T13:45:23.320Z,1.90
2023-01-28T13:47:53.084Z,1.70
2023-01-28T13:50:21.955Z,1.40
2023-01-28T13:52:53.031Z,1.50
2023-01-28T13:55:37.442Z,1.50
2023-01-28T13:58:32.375Z,1.40
2023-01-28T14:01:29.744Z,1.30
2023-01-28T14:04:09.636Z,1.50
2023-01-28T14:07:06.218Z,1.40
2023-01-28T14:09:45.520Z,1.20
2023-01-28T14:12:38.021Z,1.20
2023-01-28T14:15:26.396Z,1.50
2023-01-28T14:17:55.775Z,1.20
2023-01-28T14:20:26.325Z,0.90
2023-01-28T14:23:00.051Z,1.00
2023-01-28T14:25:30.355Z,1.10
2023-01-28T14:27:58.172Z,1.10
2023-01-28T14:30:30.353Z,0.80
2023-01-28T14:32:59.541Z,0.70
2023-01-28T14:35:30.138Z,0.80
2023-01-28T14:37:58.072Z,1.00
2023-01-28T14:40:26.387Z,1.00
2023-01-28T14:42:55.117Z,1.20
2023-01-28T14:45:34.486Z,1.20
2023-01-28T14:48:19.592Z,1.10
2023-01-28T14:50:59.290Z,1.20
2023-01-28T14:53:43.594Z,1.30
2023-01-28T14:56:15.849Z,1.30
2023-01-28T14:58:45.742Z,0.90
2023-01-28T15:01:21.286Z,1.00
2023-01-28T15:03:50.607Z,1.00
2023-01-28T15:06:20.347Z,1.00
2023-01-28T15:08:48.207Z,0.90
2023-01-28T15:11:17.429Z,0.90
2023-01-28T15:13:46.156Z,1.00
2023-01-28T15:16:17.685Z,1.10
2023-01-28T15:18:45.542Z,0.70
2023-01-28T15:21:14.725Z,0.60
2023-01-28T15:23:43.077Z,0.70
2023-01-28T15:26:13.637Z,0.80
2023-01-28T15:28:41.476Z,0.80
2023-01-28T15:31:17.017Z,0.90
2023-01-28T15:33:44.817Z,0.70
2023-01-28T15:36:14.107Z,0.70
2023-01-28T15:38:42.092Z,0.70
2023-01-28T15:41:10.007Z,0.70
2023-01-28T15:43:38.349Z,0.60
2023-01-28T15:46:10.635Z,0.60
2023-01-28T15:48:38.455Z,0.50
2023-01-28T15:51:07.112Z,0.40
2023-01-28T15:53:37.632Z,0.40
2023-01-28T15:56:06.790Z,0.50
2023-01-28T15:58:37.150Z,0.50
2023-01-28T16:01:13.681Z,0.60
2023-01-28T16:03:42.546Z,0.40
2023-01-28T16:06:11.460Z,0.40
2023-01-28T16:08:41.958Z,0.30
2023-01-28T16:11:10.491Z,0.40
2023-01-28T16:13:42.529Z,0.30
2023-01-28T16:16:10.528Z,0.30
2023-01-28T16:18:43.255Z,0.30
2023-01-28T16:21:12.896Z,0.30
2023-01-28T16:23:50.788Z,0.00
2023-01-28T16:26:23.012Z,0.20
2023-01-28T16:28:51.046Z,0.40
2023-01-28T16:31:19.192Z,0.10
2023-01-28T16:33:47.132Z,0.10
2023-01-28T16:36:15.768Z,0.00
2023-01-28T16:38:44.994Z,0.10
2023-01-28T16:41:14.624Z,0.40
2023-01-28T16:43:42.662Z,0.10
2023-01-28T16:46:13.638Z,0.10
2023-01-28T16:48:41.709Z,0.00
2023-01-28T16:51:15.763Z,-0.20
2023-01-28T16:53:45.248Z,0.00
2023-01-28T16:56:35.755Z,0.20
2023-01-28T16:59:03.938Z,0.10
2023-01-28T17:01:31.730Z,0.10
2023-01-28T17:03:59.574Z,0.20
2023-01-28T17:06:27.468Z,0.10
2023-01-28T17:08:56.814Z,-0.10
2023-01-28T17:11:24.763Z,-0.10
2023-01-28T17:13:52.636Z,-0.10
2023-01-28T17:16:20.665Z,-0.20
2023-01-28T17:18:51.189Z,-0.40
2023-01-28T17:21:19.049Z,-0.30
2023-01-28T17:23:46.951Z,-0.30
2023-01-28T17:26:16.938Z,-0.20
2023-01-28T17:28:44.982Z,-0.10
2023-01-28T17:31:13.955Z,-0.10
2023-01-28T17:33:42.215Z,-0.10
2023-01-28T17:36:10.692Z,-0.10
2023-01-28T17:38:38.593Z,-0.10
2023-01-28T17:41:07.763Z,-0.30
2023-01-28T17:43:37.072Z,-0.30
2023-01-28T17:46:11.960Z,-0.20
2023-01-28T17:48:40.163Z,-0.30
2023-01-28T17:51:08.118Z,-0.50
2023-01-28T17:53:36.111Z,-0.40
2023-01-28T17:56:04.123Z,-0.30
2023-01-28T17:58:32.029Z,-0.20
2023-01-28T18:01:01.264Z,-0.30
2023-01-28T18:03:29.198Z,-0.30
2023-01-28T18:06:00.312Z,0.00
2023-01-28T18:08:28.360Z,-0.20
2023-01-28T18:10:56.268Z,-0.20
2023-01-28T18:13:24.093Z,-0.40
2023-01-28T18:15:51.895Z,-0.40
2023-01-28T18:18:21.091Z,-0.50
2023-01-28T18:20:58.224Z,-0.60
2023-01-28T18:23:26.227Z,-0.70
2023-01-28T18:25:57.213Z,-0.60
2023-01-28T18:28:25.080Z,-0.70
2023-01-28T18:30:53.223Z,-0.80
2023-01-28T18:33:22.855Z,-0.70
2023-01-28T18:35:50.840Z,-0.70
2023-01-28T18:38:19.241Z,-0.70
2023-01-28T18:40:47.148Z,-0.70
2023-01-28T18:43:15.311Z,-0.70
2023-01-28T18:45:45.576Z,-0.80
2023-01-28T18:48:13.621Z,-0.70
2023-01-28T18:50:42.895Z,-0.80
2023-01-28T18:53:13.832Z,-0.90
2023-01-28T18:55:41.764Z,-0.90
2023-01-28T18:58:11.967Z,-1.00
2023-01-28T19:00:40.074Z,-0.90
2023-01-28T19:03:08.195Z,-1.00
2023-01-28T19:05:36.567Z,-1.00
2023-01-28T19:08:11.090Z,-1.00
2023-01-28T19:10:39.042Z,-0.90
2023-01-28T19:13:07.739Z,-1.00
2023-01-28T19:15:35.621Z,-1.00
2023-01-28T19:18:03.991Z,-1.00
2023-01-28T19:20:31.856Z,-1.00
2023-01-28T19:22:59.702Z,-1.10
2023-01-28T19:25:29.095Z,-1.10
2023-01-28T19:27:57.059Z,-1.00
2023-01-28T19:30:24.902Z,-1.00
2023-01-28T19:32:53.987Z,-0.90
2023-01-28T19:35:21.853Z,-0.90
2023-01-28T19:37:49.658Z,-0.90
2023-01-28T19:40:18.272Z,-0.90
2023-01-28T19:42:47.480Z,-0.90
2023-01-28T19:45:16.166Z,-0.90
2023-01-28T19:47:44.223Z,-0.90
2023-01-28T19:50:12.814Z,-0.80
2023-01-28T19:52:40.764Z,-0.80
2023-01-28T19:55:12.342Z,-0.80
2023-01-28T19:57:40.230Z,-0.80
2023-01-28T20:00:12.731Z,-0.80
2023-01-28T20:02:40.877Z,-0.80
2023-01-28T20:05:10.239Z,-0.70
2023-01-28T20:07:38.084Z,-1.00
2023-01-28T20:10:06.881Z,-0.90
2023-01-28T20:12:34.788Z,-1.10
2023-01-28T20:15:02.726Z,-1.00
2023-01-28T20:17:32.286Z,-0.90
2023-01-28T20:20:00.216Z,-1.00
2023-01-28T20:22:28.200Z,-1.00
2023-01-28T20:24:57.252Z,-1.00
2023-01-28T20:27:25.371Z,-0.90
2023-01-28T20:29:56.093Z,-0.90
2023-01-28T20:32:24.074Z,-0.90
2023-01-28T20:34:53.477Z,-1.10
2023-01-28T20:37:21.413Z,-1.00
2023-01-28T20:39:49.263Z,-1.10
2023-01-28T20:42:17.290Z,-1.10
2023-01-28T20:44:45.171Z,-1.20
2023-01-28T20:47:12.995Z,-1.10
2023-01-28T20:49:40.912Z,-1.10
2023-01-28T20:52:12.532Z,-1.10
2023-01-28T20:54:43.379Z,-1.20
2023-01-28T20:57:11.192Z,-1.20
2023-01-28T20:59:39.880Z,-1.20
2023-01-28T21:02:07.967Z,-1.20
2023-01-28T21:04:36.081Z,-1.10
2023-01-28T21:07:03.924Z,-1.20
2023-01-28T21:09:33.101Z,-1.20
2023-01-28T21:12:01.654Z,-1.20
2023-01-28T21:14:29.475Z,-1.10
2023-01-28T21:16:57.358Z,-1.20
2023-01-28T21:19:25.338Z,-1.10
2023-01-28T21:21:53.167Z,-0.90
2023-01-28T21:24:24.213Z,-1.10
2023-01-28T21:26:53.392Z,-1.30
2023-01-28T21:29:21.314Z,-1.30
2023-01-28T21:31:49.565Z,-1.40
2023-01-28T21:34:17.509Z,-1.40
2023-01-28T21:36:45.746Z,-1.30
2023-01-28T21:39:13.722Z,-1.40
2023-01-28T21:41:41.573Z,-1.50
2023-01-28T21:44:13.264Z,-1.50
2023-01-28T21:46:41.306Z,-1.30
2023-01-28T21:49:11.648Z,-1.60
2023-01-28T21:51:40.369Z,-1.70
2023-01-28T21:54:10.505Z,-1.60
2023-01-28T21:56:38.375Z,-1.60
2023-01-28T21:59:23.744Z,-1.50
2023-01-28T22:01:52.943Z,-1.60
2023-01-28T22:04:20.832Z,-1.80
2023-01-28T22:06:49.311Z,-1.80
2023-01-28T22:09:17.192Z,-1.90
2023-01-28T22:11:45.456Z,-2.00
2023-01-28T22:14:13.526Z,-1.90
2023-01-28T22:16:41.402Z,-2.00
2023-01-28T22:19:13.606Z,-1.90
2023-01-28T22:21:42.175Z,-2.00
2023-01-28T22:24:11.460Z,-2.00
2023-01-28T22:26:42.827Z,-2.00
2023-01-28T22:29:10.753Z,-2.00
2023-01-28T22:31:38.648Z,-2.20
2023-01-28T22:34:06.708Z,-2.30
2023-01-28T22:36:36.209Z,-2.20
2023-01-28T22:39:04.570Z,-2.10
2023-01-28T22:41:32.391Z,-2.10
2023-01-28T22:44:01.614Z,-2.20
2023-01-28T22:46:29.514Z,-2.20
2023-01-28T22:48:57.412Z,-2.20
2023-01-28T22:51:25.933Z,-2.20
2023-01-28T22:53:55.095Z,-2.20
2023-01-28T22:56:23.900Z,-2.10
2023-01-28T22:58:55.380Z,-2.10
2023-01-28T23:01:23.212Z,-2.10
2023-01-28T23:03:51.402Z,-1.80
2023-01-28T23:06:20.585Z,-1.80
2023-01-28T23:08:48.411Z,-1.70
2023-01-28T23:11:25.027Z,-1.90
2023-01-28T23:14:10.497Z,-1.90
2023-01-28T23:16:56.375Z,-1.90
2023-01-28T23:19:41.876Z,-2.00
2023-01-28T23:22:32.462Z,-2.00
2023-01-28T23:25:00.295Z,-1.90
2023-01-28T23:27:29.431Z,-2.20
2023-01-28T23:29:57.240Z,-2.20
2023-01-28T23:32:25.024Z,-2.30
2023-01-28T23:34:52.834Z,-2.30
2023-01-28T23:37:20.646Z,-2.40
2023-01-28T23:39:48.440Z,-2.40
2023-01-28T23:42:17.319Z,-2.60
2023-01-28T23:44:46.644Z,-2.50
2023-01-28T23:47:14.506Z,-2.60
2023-01-28T23:49:42.408Z,-2.60
2023-01-28T23:52:10.243Z,-2.50
2023-01-28T23:54:38.057Z,-2.60
2023-01-28T23:57:06.018Z,-2.70
2023-01-28T23:59:33.870Z,-2.80
